createdAt,value
2022-07-26T00:01:38.539Z,22.88
2022-07-26T00:04:05.422Z,22.96
2022-07-26T00:06:31.935Z,22.93
2022-07-26T00:08:58.464Z,22.88
2022-07-26T00:11:25.733Z,22.84
2022-07-26T00:13:52.430Z,22.87
2022-07-26T00:16:20.622Z,22.84
2022-07-26T00:18:47.778Z,22.90
2022-07-26T00:21:14.243Z,22.89
2022-07-26T00:23:40.684Z,22.79
2022-07-26T00:26:07.212Z,22.88
2022-07-26T00:28:34.037Z,22.77
2022-07-26T00:31:00.605Z,22.81
2022-07-26T00:33:28.505Z,22.85
2022-07-26T00:35:55.177Z,22.75
2022-07-26T00:38:21.661Z,22.72
2022-07-26T00:40:48.245Z,22.78
2022-07-26T00:43:14.656Z,22.74
2022-07-26T00:45:41.390Z,22.67
2022-07-26T00:48:07.889Z,22.68
2022-07-26T00:50:34.803Z,22.67
2022-07-26T00:53:01.885Z,22.64
2022-07-26T00:55:28.721Z,22.67
2022-07-26T00:57:55.223Z,22.68
2022-07-26T01:00:27.632Z,22.61
2022-07-26T01:02:56.132Z,22.65
2022-07-26T01:05:23.722Z,22.61
2022-07-26T01:07:50.919Z,22.48
2022-07-26T01:10:17.623Z,22.52
2022-07-26T01:12:45.426Z,22.51
2022-07-26T01:15:14.473Z,22.51
2022-07-26T01:17:41.794Z,22.42
2022-07-26T01:20:10.514Z,22.39
2022-07-26T01:22:37.778Z,22.38
2022-07-26T01:25:06.110Z,22.33
2022-07-26T01:27:34.518Z,22.28
2022-07-26T01:30:01.408Z,22.36
2022-07-26T01:32:29.283Z,22.32
2022-07-26T01:34:56.544Z,22.30
2022-07-26T01:37:24.117Z,22.18
2022-07-26T01:39:55.355Z,22.17
2022-07-26T01:42:22.154Z,22.07
2022-07-26T01:44:49.109Z,21.96
2022-07-26T01:47:16.415Z,21.93
2022-07-26T01:49:44.973Z,21.90
2022-07-26T01:52:11.524Z,21.79
2022-07-26T01:54:38.409Z,21.53
2022-07-26T01:57:05.122Z,21.18
2022-07-26T01:59:32.863Z,20.93
2022-07-26T02:02:00.068Z,20.73
2022-07-26T02:04:45.845Z,20.57
2022-07-26T02:07:13.475Z,20.39
2022-07-26T02:09:40.679Z,20.30
2022-07-26T02:12:07.863Z,20.01
2022-07-26T02:14:34.932Z,19.97
2022-07-26T02:17:02.292Z,19.76
2022-07-26T02:19:29.718Z,19.66
2022-07-26T02:21:56.275Z,19.60
2022-07-26T02:24:23.354Z,19.62
2022-07-26T02:26:50.072Z,19.52
2022-07-26T02:29:16.855Z,19.49
2022-07-26T02:31:48.479Z,19.49
2022-07-26T02:34:16.603Z,19.41
2022-07-26T02:36:43.820Z,19.37
2022-07-26T02:39:12.236Z,19.48
2022-07-26T02:41:38.948Z,19.52
2022-07-26T02:44:06.684Z,19.46
2022-07-26T02:46:33.527Z,19.43
2022-07-26T02:49:00.886Z,19.43
2022-07-26T02:51:28.483Z,19.44
2022-07-26T02:53:55.093Z,19.38
2022-07-26T02:56:21.882Z,19.35
2022-07-26T02:58:48.648Z,19.33
2022-07-26T03:01:15.225Z,19.36
2022-07-26T03:03:45.910Z,19.40
2022-07-26T03:06:15.179Z,19.32
2022-07-26T03:08:41.705Z,19.33
2022-07-26T03:11:11.955Z,19.39
2022-07-26T03:13:38.779Z,19.50
2022-07-26T03:16:05.765Z,19.54
2022-07-26T03:18:32.335Z,19.54
2022-07-26T03:20:58.815Z,19.50
2022-07-26T03:23:28.756Z,19.48
2022-07-26T03:25:55.201Z,19.49
2022-07-26T03:28:21.655Z,19.56
2022-07-26T03:30:48.051Z,19.59
2022-07-26T03:33:14.445Z,19.59
2022-07-26T03:35:40.950Z,19.53
2022-07-26T03:38:08.281Z,19.47
2022-07-26T03:40:35.134Z,19.55
2022-07-26T03:43:01.760Z,19.62
2022-07-26T03:45:29.789Z,19.67
2022-07-26T03:47:58.269Z,19.79
2022-07-26T03:50:24.676Z,19.70
2022-07-26T03:52:51.130Z,19.69
2022-07-26T03:55:36.813Z,19.61
2022-07-26T03:58:03.489Z,19.53
2022-07-26T04:00:30.203Z,19.56
2022-07-26T04:02:56.648Z,19.56
2022-07-26T04:05:23.727Z,19.51
2022-07-26T04:07:53.037Z,19.50
2022-07-26T04:10:20.918Z,19.62
2022-07-26T04:12:47.332Z,19.71
2022-07-26T04:15:16.098Z,19.71
2022-07-26T04:17:42.888Z,19.79
2022-07-26T04:20:11.117Z,19.88
2022-07-26T04:22:38.909Z,19.99
2022-07-26T04:25:07.678Z,19.99
2022-07-26T04:27:34.370Z,20.02
2022-07-26T04:30:00.878Z,20.11
2022-07-26T04:32:27.607Z,20.22
2022-07-26T04:34:54.318Z,20.23
2022-07-26T04:37:20.654Z,20.29
2022-07-26T04:39:49.365Z,20.32
2022-07-26T04:42:19.628Z,20.29
2022-07-26T04:44:46.000Z,20.39
2022-07-26T04:47:12.354Z,20.49
2022-07-26T04:49:38.836Z,20.62
2022-07-26T04:52:05.515Z,20.67
2022-07-26T04:54:32.318Z,20.78
2022-07-26T04:56:58.724Z,20.86
2022-07-26T04:59:25.134Z,21.01
2022-07-26T05:01:51.701Z,21.10
2022-07-26T05:04:18.176Z,21.17
2022-07-26T05:06:45.375Z,21.28
2022-07-26T05:09:12.097Z,21.34
2022-07-26T05:11:38.586Z,21.47
2022-07-26T05:14:05.257Z,21.62
2022-07-26T05:16:31.933Z,21.58
2022-07-26T05:18:58.582Z,21.61
2022-07-26T05:21:25.161Z,21.71
2022-07-26T05:23:51.730Z,21.61
2022-07-26T05:26:19.200Z,21.76
2022-07-26T05:28:45.648Z,21.87
2022-07-26T05:31:12.317Z,22.03
2022-07-26T05:33:39.639Z,22.06
2022-07-26T05:36:06.536Z,22.12
2022-07-26T05:38:33.699Z,22.13
2022-07-26T05:41:00.191Z,22.29
2022-07-26T05:43:27.603Z,22.49
2022-07-26T05:46:09.725Z,22.52
2022-07-26T05:48:36.875Z,22.67
2022-07-26T05:51:04.614Z,22.76
2022-07-26T05:53:31.023Z,22.85
2022-07-26T05:55:57.434Z,22.90
2022-07-26T05:58:23.828Z,22.65
2022-07-26T06:00:52.835Z,22.63
2022-07-26T06:03:22.217Z,22.98
2022-07-26T06:05:54.114Z,23.11
2022-07-26T06:08:21.483Z,23.16
2022-07-26T06:10:48.874Z,23.58
2022-07-26T06:13:15.667Z,23.18
2022-07-26T06:15:43.101Z,23.22
2022-07-26T06:18:10.072Z,23.03
2022-07-26T06:20:41.265Z,23.24
2022-07-26T06:23:07.845Z,22.99
2022-07-26T06:25:35.767Z,23.39
2022-07-26T06:28:07.725Z,23.62
2022-07-26T06:30:39.003Z,23.74
2022-07-26T06:33:06.088Z,23.79
2022-07-26T06:35:35.220Z,23.92
2022-07-26T06:38:03.417Z,24.16
2022-07-26T06:40:31.167Z,24.36
2022-07-26T06:43:01.355Z,24.61
2022-07-26T06:45:34.003Z,24.60
2022-07-26T06:48:00.663Z,24.84
2022-07-26T06:50:28.389Z,25.16
2022-07-26T06:52:55.138Z,25.44
2022-07-26T06:55:21.696Z,25.63
2022-07-26T06:57:50.188Z,25.82
2022-07-26T07:00:19.433Z,26.00
2022-07-26T07:02:46.256Z,26.22
2022-07-26T07:05:13.109Z,26.47
2022-07-26T07:07:42.141Z,26.48
2022-07-26T07:10:10.003Z,26.93
2022-07-26T07:12:36.450Z,26.34
2022-07-26T07:15:03.374Z,26.31
2022-07-26T07:17:29.977Z,26.32
2022-07-26T07:19:57.700Z,26.82
2022-07-26T07:22:24.321Z,27.55
2022-07-26T07:24:51.165Z,28.49
2022-07-26T07:27:17.858Z,28.68
2022-07-26T07:29:44.670Z,28.85
2022-07-26T07:32:18.531Z,29.27
2022-07-26T07:34:48.007Z,28.92
2022-07-26T07:37:17.259Z,29.18
2022-07-26T07:39:44.099Z,28.71
2022-07-26T07:42:15.649Z,28.26
2022-07-26T07:44:43.029Z,28.17
2022-07-26T07:47:09.505Z,29.09
2022-07-26T07:49:36.499Z,28.70
2022-07-26T07:52:05.754Z,28.65
2022-07-26T07:54:32.251Z,28.90
2022-07-26T07:56:59.132Z,29.18
2022-07-26T07:59:26.182Z,30.62
2022-07-26T08:01:52.738Z,31.33
2022-07-26T08:04:20.490Z,31.33
2022-07-26T08:06:51.081Z,31.66
2022-07-26T08:09:19.032Z,31.61
2022-07-26T08:11:45.908Z,31.69
2022-07-26T08:14:18.114Z,31.16
2022-07-26T08:16:52.188Z,31.37
2022-07-26T08:19:40.858Z,30.97
2022-07-26T08:22:14.933Z,30.91
2022-07-26T08:24:41.598Z,30.20
2022-07-26T08:27:08.111Z,28.91
2022-07-26T08:29:34.534Z,28.03
2022-07-26T08:32:01.097Z,26.59
2022-07-26T08:34:27.719Z,26.61
2022-07-26T08:37:15.411Z,25.39
2022-07-26T08:39:40.862Z,25.42
2022-07-26T08:42:22.730Z,25.08
2022-07-26T08:44:50.587Z,25.48
2022-07-26T08:47:35.377Z,27.22
2022-07-26T08:50:05.284Z,30.14
2022-07-26T08:52:32.299Z,30.64
2022-07-26T08:54:58.790Z,31.52
2022-07-26T08:57:25.226Z,31.90
2022-07-26T09:00:18.277Z,32.42
2022-07-26T09:02:45.510Z,33.81
2022-07-26T09:05:12.587Z,34.52
2022-07-26T09:07:40.153Z,33.82
2022-07-26T09:10:09.638Z,34.50
2022-07-26T09:12:37.797Z,35.28
2022-07-26T09:15:06.836Z,35.95
2022-07-26T09:17:44.015Z,32.52
2022-07-26T09:20:24.282Z,34.43
2022-07-26T09:23:07.682Z,31.64
2022-07-26T09:25:35.574Z,29.41
2022-07-26T09:28:03.776Z,28.68
2022-07-26T09:30:32.722Z,28.76
2022-07-26T09:33:05.929Z,29.50
2022-07-26T09:35:52.128Z,30.96
2022-07-26T09:38:19.499Z,32.92
2022-07-26T09:40:46.797Z,32.45
2022-07-26T09:43:19.819Z,31.58
2022-07-26T09:46:03.673Z,31.74
2022-07-26T09:48:52.321Z,32.92
2022-07-26T09:51:34.782Z,31.19
2022-07-26T09:54:02.013Z,30.83
2022-07-26T09:56:49.168Z,29.68
2022-07-26T09:59:24.008Z,31.66
2022-07-26T10:01:52.230Z,32.92
2022-07-26T10:04:19.362Z,34.07
2022-07-26T10:06:46.281Z,35.30
2022-07-26T10:09:13.480Z,32.12
2022-07-26T10:11:44.699Z,31.41
2022-07-26T10:14:41.519Z,30.99
2022-07-26T10:17:31.765Z,30.31
2022-07-26T10:20:10.720Z,29.79
2022-07-26T10:22:47.295Z,30.55
2022-07-26T10:25:19.775Z,31.64
2022-07-26T10:27:54.536Z,32.14
2022-07-26T10:30:33.818Z,32.91
2022-07-26T10:33:02.898Z,34.83
2022-07-26T10:35:41.260Z,34.76
2022-07-26T10:38:10.199Z,34.65
2022-07-26T10:40:38.430Z,35.06
2022-07-26T10:43:39.597Z,34.40
2022-07-26T10:46:13.471Z,33.49
2022-07-26T10:49:00.057Z,32.43
2022-07-26T10:51:28.424Z,30.40
2022-07-26T10:54:03.003Z,30.35
2022-07-26T10:56:33.519Z,30.57
2022-07-26T10:59:01.070Z,30.80
2022-07-26T11:01:35.289Z,31.97
2022-07-26T11:04:02.036Z,32.44
2022-07-26T11:06:30.237Z,31.73
2022-07-26T11:08:56.656Z,31.62
2022-07-26T11:11:33.384Z,32.31
2022-07-26T11:14:13.253Z,32.14
2022-07-26T11:16:48.524Z,31.51
2022-07-26T11:19:19.954Z,32.49
2022-07-26T11:21:53.384Z,32.84
2022-07-26T11:24:21.913Z,32.65
2022-07-26T11:26:48.669Z,32.09
2022-07-26T11:29:17.615Z,32.58
2022-07-26T11:31:51.389Z,32.31
2022-07-26T11:34:28.484Z,32.84
2022-07-26T11:36:57.111Z,33.42
2022-07-26T11:39:25.469Z,35.16
2022-07-26T11:42:00.529Z,34.92
2022-07-26T11:44:27.859Z,34.53
2022-07-26T11:46:54.482Z,34.84
2022-07-26T11:49:27.702Z,34.28
2022-07-26T11:52:09.081Z,34.35
2022-07-26T11:54:50.633Z,34.03
2022-07-26T11:57:17.985Z,33.43
2022-07-26T11:59:46.179Z,32.72
2022-07-26T12:02:13.955Z,32.45
2022-07-26T12:04:43.243Z,32.65
2022-07-26T12:07:18.401Z,33.38
2022-07-26T12:09:54.308Z,33.42
2022-07-26T12:12:27.417Z,34.10
2022-07-26T12:15:01.677Z,33.97
2022-07-26T12:17:35.102Z,33.77
2022-07-26T12:20:11.729Z,32.53
2022-07-26T12:22:38.713Z,32.36
2022-07-26T12:25:05.746Z,33.09
2022-07-26T12:27:33.861Z,33.99
2022-07-26T12:30:03.343Z,34.39
2022-07-26T12:32:33.700Z,32.89
2022-07-26T12:35:02.358Z,32.53
2022-07-26T12:37:39.564Z,32.87
2022-07-26T12:40:12.366Z,33.57
2022-07-26T12:43:05.114Z,34.16
2022-07-26T12:45:33.648Z,33.89
2022-07-26T12:48:02.300Z,33.15
2022-07-26T12:50:31.351Z,32.73
2022-07-26T12:53:08.660Z,33.23
2022-07-26T12:55:35.948Z,33.06
2022-07-26T12:58:02.507Z,32.72
2022-07-26T13:00:29.925Z,32.45
2022-07-26T13:02:57.337Z,31.50
2022-07-26T13:05:23.943Z,31.07
2022-07-26T13:07:51.654Z,30.73
2022-07-26T13:10:35.387Z,29.95
2022-07-26T13:13:02.796Z,29.71
2022-07-26T13:15:35.229Z,29.61
2022-07-26T13:18:05.462Z,29.36
2022-07-26T13:20:32.653Z,29.06
2022-07-26T13:22:59.160Z,28.93
2022-07-26T13:25:30.013Z,29.03
2022-07-26T13:27:59.923Z,28.62
2022-07-26T13:30:26.558Z,28.26
2022-07-26T13:32:53.021Z,28.17
2022-07-26T13:35:19.581Z,28.19
2022-07-26T13:37:46.068Z,28.24
2022-07-26T13:40:12.663Z,28.74
2022-07-26T13:42:39.415Z,28.91
2022-07-26T13:45:06.841Z,29.39
2022-07-26T13:47:33.264Z,29.11
2022-07-26T13:49:59.746Z,29.40
2022-07-26T13:52:26.223Z,29.56
2022-07-26T13:54:53.198Z,29.84
2022-07-26T13:57:19.639Z,29.69
2022-07-26T13:59:46.092Z,29.29
2022-07-26T14:02:12.811Z,29.89
2022-07-26T14:04:39.353Z,30.25
2022-07-26T14:07:05.774Z,30.41
2022-07-26T14:09:32.744Z,30.28
2022-07-26T14:11:59.290Z,30.25
2022-07-26T14:14:25.794Z,29.90
2022-07-26T14:16:52.461Z,29.38
2022-07-26T14:19:19.023Z,28.81
2022-07-26T14:21:47.457Z,28.98
2022-07-26T14:24:26.499Z,28.84
2022-07-26T14:26:56.878Z,29.01
2022-07-26T14:29:25.334Z,29.15
2022-07-26T14:31:51.983Z,29.09
2022-07-26T14:34:18.550Z,29.29
2022-07-26T14:36:45.153Z,29.32
2022-07-26T14:39:11.790Z,28.98
2022-07-26T14:41:38.301Z,29.17
2022-07-26T14:44:04.871Z,29.45
2022-07-26T14:46:31.547Z,29.66
2022-07-26T14:48:58.223Z,29.04
2022-07-26T14:51:24.953Z,29.24
2022-07-26T14:53:51.929Z,29.34
2022-07-26T14:56:18.394Z,28.88
2022-07-26T14:58:44.830Z,28.31
2022-07-26T15:01:11.298Z,28.19
2022-07-26T15:03:37.882Z,27.96
2022-07-26T15:06:04.522Z,27.93
2022-07-26T15:08:30.952Z,28.10
2022-07-26T15:10:57.559Z,28.18
2022-07-26T15:13:24.187Z,28.35
2022-07-26T15:15:50.731Z,28.38
2022-07-26T15:18:17.295Z,28.24
2022-07-26T15:20:43.908Z,28.64
2022-07-26T15:23:11.962Z,28.59
2022-07-26T15:25:38.530Z,28.62
2022-07-26T15:28:05.614Z,28.90
2022-07-26T15:30:33.278Z,28.63
2022-07-26T15:33:01.860Z,28.45
2022-07-26T15:35:32.713Z,28.09
2022-07-26T15:37:59.608Z,27.72
2022-07-26T15:40:26.248Z,27.61
2022-07-26T15:42:52.926Z,27.43
2022-07-26T15:45:20.231Z,27.19
2022-07-26T15:48:04.403Z,27.28
2022-07-26T15:50:34.970Z,27.66
2022-07-26T15:53:01.642Z,27.91
2022-07-26T15:55:28.313Z,27.81
2022-07-26T15:57:55.016Z,27.74
2022-07-26T16:00:22.051Z,27.74
2022-07-26T16:02:48.600Z,27.48
2022-07-26T16:05:15.181Z,26.99
2022-07-26T16:07:43.422Z,26.88
2022-07-26T16:14:12.215Z,27.18
2022-07-26T16:16:53.690Z,27.18
2022-07-26T16:20:09.737Z,27.22
2022-07-26T16:22:57.230Z,26.87
2022-07-26T16:25:39.358Z,26.82
2022-07-26T16:28:13.817Z,26.86
2022-07-26T16:30:55.285Z,26.73
2022-07-26T16:33:45.799Z,26.75
2022-07-26T16:36:20.820Z,26.54
2022-07-26T16:40:54.783Z,26.55
2022-07-26T16:42:08.424Z,26.57
2022-07-26T16:44:48.613Z,26.38
2022-07-26T16:48:00.124Z,26.18
2022-07-26T16:50:39.583Z,26.21
2022-07-26T16:53:12.889Z,26.14
2022-07-26T16:55:39.887Z,25.90
2022-07-26T16:58:06.576Z,25.87
2022-07-26T17:00:35.920Z,25.73
2022-07-26T17:03:02.772Z,25.54
2022-07-26T17:05:31.603Z,25.46
2022-07-26T17:08:02.527Z,25.47
2022-07-26T17:10:29.408Z,25.17
2022-07-26T17:13:01.419Z,25.27
2022-07-26T17:15:28.304Z,25.23
2022-07-26T17:17:54.991Z,25.17
2022-07-26T17:20:22.244Z,25.14
2022-07-26T17:22:51.490Z,25.15
2022-07-26T17:25:18.138Z,25.06
2022-07-26T17:27:45.373Z,25.00
2022-07-26T17:30:12.574Z,24.90
2022-07-26T17:32:39.462Z,24.77
2022-07-26T17:35:11.484Z,24.62
2022-07-26T17:37:59.558Z,24.63
2022-07-26T17:40:49.513Z,24.40
2022-07-26T17:43:18.685Z,24.30
2022-07-26T17:45:46.014Z,24.31
2022-07-26T17:48:13.091Z,24.24
2022-07-26T17:50:50.148Z,24.13
2022-07-26T17:53:21.782Z,24.21
2022-07-26T18:01:50.436Z,24.19
2022-07-26T18:05:12.405Z,24.00
2022-07-26T18:13:05.900Z,23.67
2022-07-26T18:16:30.036Z,23.56
2022-07-26T18:19:19.487Z,23.42
2022-07-26T18:22:14.962Z,23.23
2022-07-26T18:27:56.564Z,23.00
2022-07-26T18:30:24.895Z,22.95
2022-07-26T18:32:51.771Z,22.79
2022-07-26T18:35:28.483Z,22.74
2022-07-26T18:38:07.743Z,22.65
2022-07-26T18:40:52.765Z,22.50
2022-07-26T18:46:33.675Z,22.31
2022-07-26T18:49:07.034Z,22.17
2022-07-26T18:51:52.277Z,22.09
2022-07-26T18:54:40.717Z,22.00
2022-07-26T18:57:18.458Z,21.90
2022-07-26T18:59:45.330Z,21.74
2022-07-26T19:02:18.730Z,21.64
2022-07-26T19:04:55.419Z,21.61
2022-07-26T19:07:32.381Z,21.42
2022-07-26T19:09:59.818Z,21.33
2022-07-26T19:12:27.892Z,21.27
2022-07-26T19:18:57.539Z,21.00
2022-07-26T19:22:22.848Z,21.00
2022-07-26T19:24:54.944Z,20.96
2022-07-26T19:27:21.816Z,20.90
2022-07-26T19:29:49.252Z,20.84
2022-07-26T19:32:17.641Z,20.67
2022-07-26T19:34:44.306Z,20.64
2022-07-26T19:37:11.281Z,20.62
2022-07-26T19:39:45.501Z,20.58
2022-07-26T19:42:12.877Z,20.52
2022-07-26T19:44:39.845Z,20.48
2022-07-26T19:47:06.855Z,20.38
2022-07-26T19:49:33.437Z,20.29
2022-07-26T19:52:07.149Z,20.27
2022-07-26T19:54:37.502Z,20.26
2022-07-26T19:57:04.353Z,20.23
2022-07-26T19:59:31.072Z,20.13
2022-07-26T20:01:58.517Z,20.04
2022-07-26T20:04:25.505Z,20.11
2022-07-26T20:07:10.574Z,20.02
2022-07-26T20:09:47.486Z,20.01
2022-07-26T20:15:18.937Z,19.91
2022-07-26T20:17:45.708Z,19.83
2022-07-26T20:20:20.106Z,19.86
2022-07-26T20:22:55.275Z,19.77
2022-07-26T20:34:31.654Z,19.51
2022-07-26T20:38:40.142Z,19.48
2022-07-26T20:41:23.863Z,19.38
2022-07-26T20:45:21.896Z,19.44
2022-07-26T20:47:35.085Z,19.38
2022-07-26T20:50:24.140Z,19.40
2022-07-26T20:53:14.327Z,19.41
2022-07-26T20:56:13.174Z,19.41
2022-07-26T20:59:23.535Z,19.29
2022-07-26T21:02:30.696Z,19.32
2022-07-26T21:04:59.128Z,19.27
2022-07-26T21:07:57.322Z,19.37
2022-07-26T21:10:57.784Z,19.41
2022-07-26T21:13:59.335Z,19.45
2022-07-26T21:16:43.716Z,19.46
2022-07-26T21:20:00.606Z,19.45
2022-07-26T21:22:36.883Z,19.55
2022-07-26T21:25:28.933Z,19.56
2022-07-26T21:27:55.755Z,19.61
2022-07-26T21:30:24.700Z,19.68
2022-07-26T21:33:00.529Z,19.69
2022-07-26T21:35:32.070Z,19.74
2022-07-26T21:38:35.615Z,19.71
2022-07-26T21:41:13.782Z,19.70
2022-07-26T21:44:03.671Z,19.70
2022-07-26T21:46:33.366Z,19.68
2022-07-26T21:49:23.618Z,19.66
2022-07-26T21:51:52.686Z,19.68
2022-07-26T21:54:34.057Z,19.65
2022-07-26T21:57:07.518Z,19.71
2022-07-26T21:59:57.636Z,19.73
2022-07-26T22:05:54.613Z,19.66
2022-07-26T22:08:35.187Z,19.72
2022-07-26T22:11:02.653Z,19.81
2022-07-26T22:13:42.362Z,19.76
2022-07-26T22:16:11.319Z,19.79
2022-07-26T22:18:38.135Z,19.81
2022-07-26T22:21:04.926Z,19.82
2022-07-26T22:23:36.807Z,19.70
2022-07-26T22:26:34.434Z,19.73
2022-07-26T22:29:27.556Z,19.79
2022-07-26T22:32:08.357Z,19.70
2022-07-26T22:35:19.204Z,19.67
2022-07-26T22:41:20.657Z,19.64
2022-07-26T22:44:19.081Z,19.68
2022-07-26T22:47:57.551Z,19.67
2022-07-26T22:50:26.190Z,19.64
2022-07-26T22:55:56.734Z,19.67
2022-07-26T22:59:01.816Z,19.67
2022-07-26T23:01:28.968Z,19.69
2022-07-26T23:04:14.400Z,19.66
2022-07-26T23:07:02.964Z,19.68
2022-07-26T23:09:54.527Z,19.66
2022-07-26T23:12:25.717Z,19.71
2022-07-26T23:15:22.261Z,19.65
2022-07-26T23:18:59.634Z,19.67
2022-07-26T23:25:37.682Z,19.71
2022-07-26T23:28:42.878Z,19.60
2022-07-26T23:31:58.785Z,19.61
2022-07-26T23:38:23.793Z,19.56
2022-07-26T23:41:11.840Z,19.51
2022-07-26T23:43:49.031Z,19.52
2022-07-26T23:46:21.168Z,19.46
2022-07-26T23:49:23.012Z,19.47
2022-07-26T23:52:02.127Z,19.38
2022-07-26T23:54:29.346Z,19.22
2022-07-26T23:56:56.861Z,19.02
2022-07-26T23:59:25.650Z,18.88
